createdAt,value
2023-10-01T00:01:57.113Z,23.23
2023-10-01T00:04:26.269Z,14.03
2023-10-01T00:06:55.524Z,13.67
2023-10-01T00:09:24.590Z,17.50
2023-10-01T00:11:53.517Z,15.30
2023-10-01T00:14:28.181Z,12.10
2023-10-01T00:17:00.407Z,15.70
2023-10-01T00:19:29.602Z,14.33
2023-10-01T00:21:58.994Z,12.43
2023-10-01T00:24:28.136Z,14.23
2023-10-01T00:26:57.296Z,13.23
2023-10-01T00:29:26.244Z,15.90
2023-10-01T00:31:56.636Z,13.80
2023-10-01T00:34:27.169Z,18.83
2023-10-01T00:36:56.360Z,18.20
2023-10-01T00:39:25.305Z,16.07
2023-10-01T00:41:54.337Z,15.53
2023-10-01T00:44:23.346Z,12.53
2023-10-01T00:46:52.497Z,11.80
2023-10-01T00:49:24.418Z,13.27
2023-10-01T00:51:55.221Z,13.60
2023-10-01T00:54:24.433Z,19.63
2023-10-01T00:56:53.384Z,11.27
2023-10-01T00:59:22.502Z,13.77
2023-10-01T01:01:51.893Z,15.67
2023-10-01T01:04:24.237Z,13.10
2023-10-01T01:06:55.942Z,18.53
2023-10-01T01:09:25.454Z,39.37
2023-10-01T01:11:54.460Z,20.20
2023-10-01T01:14:23.721Z,15.17
2023-10-01T01:16:53.529Z,16.87
2023-10-01T01:19:22.649Z,12.53
2023-10-01T01:21:51.989Z,12.87
2023-10-01T01:24:24.341Z,18.57
2023-10-01T01:26:53.855Z,13.63
2023-10-01T01:29:30.991Z,21.53
2023-10-01T01:32:08.915Z,18.87
2023-10-01T01:34:39.115Z,14.13
2023-10-01T01:37:09.216Z,14.13
2023-10-01T01:39:50.427Z,16.87
2023-10-01T01:42:22.694Z,11.87
2023-10-01T01:45:11.710Z,18.00
2023-10-01T01:47:40.799Z,14.73
2023-10-01T01:50:19.880Z,15.47
2023-10-01T01:52:50.991Z,16.53
2023-10-01T01:55:31.816Z,13.20
2023-10-01T01:58:10.481Z,15.87
2023-10-01T02:00:48.215Z,15.57
2023-10-01T02:03:19.352Z,17.53
2023-10-01T02:05:50.624Z,12.47
2023-10-01T02:08:26.191Z,13.50
2023-10-01T02:10:57.668Z,16.73
2023-10-01T02:13:28.501Z,15.20
2023-10-01T02:16:17.883Z,12.10
2023-10-01T02:18:57.809Z,14.20
2023-10-01T02:21:44.447Z,13.27
2023-10-01T02:24:15.336Z,11.53
2023-10-01T02:26:47.705Z,16.90
2023-10-01T02:29:17.779Z,14.33
2023-10-01T02:31:49.976Z,11.00
2023-10-01T02:34:21.413Z,11.40
2023-10-01T02:36:51.743Z,13.67
2023-10-01T02:39:28.746Z,13.67
2023-10-01T02:42:11.076Z,22.03
2023-10-01T02:44:40.431Z,9.90
2023-10-01T02:47:18.788Z,15.33
2023-10-01T02:49:51.296Z,11.10
2023-10-01T02:52:26.919Z,13.20
2023-10-01T02:54:59.087Z,9.50
2023-10-01T02:57:35.044Z,10.43
2023-10-01T03:00:21.687Z,12.07
2023-10-01T03:02:55.661Z,7.77
2023-10-01T03:05:30.920Z,12.70
2023-10-01T03:08:05.493Z,12.77
2023-10-01T03:10:34.250Z,12.00
2023-10-01T03:13:17.014Z,12.00
2023-10-01T03:16:05.352Z,14.63
2023-10-01T03:18:37.507Z,12.17
2023-10-01T03:21:08.710Z,11.60
2023-10-01T03:23:37.873Z,17.73
2023-10-01T03:26:11.179Z,14.73
2023-10-01T03:28:55.642Z,12.33
2023-10-01T03:31:25.197Z,11.07
2023-10-01T03:33:55.526Z,7.93
2023-10-01T03:36:27.592Z,8.17
2023-10-01T03:39:01.534Z,10.10
2023-10-01T03:41:50.603Z,7.00
2023-10-01T03:44:41.227Z,11.40
2023-10-01T03:47:10.167Z,10.57
2023-10-01T03:49:45.642Z,10.93
2023-10-01T03:52:16.450Z,12.40
2023-10-01T03:55:01.407Z,7.87
2023-10-01T03:57:31.755Z,9.37
2023-10-01T04:00:22.134Z,9.53
2023-10-01T04:02:51.097Z,5.83
2023-10-01T04:05:32.603Z,11.30
2023-10-01T04:08:07.897Z,7.03
2023-10-01T04:10:39.773Z,12.07
2023-10-01T04:13:25.302Z,8.30
2023-10-01T04:15:58.103Z,7.23
2023-10-01T04:18:30.470Z,8.43
2023-10-01T04:21:18.197Z,9.47
2023-10-01T04:23:50.007Z,13.03
2023-10-01T04:26:20.173Z,9.90
2023-10-01T04:28:52.210Z,6.30
2023-10-01T04:31:44.068Z,11.60
2023-10-01T04:34:14.214Z,6.80
2023-10-01T04:36:44.468Z,6.70
2023-10-01T04:39:14.026Z,7.30
2023-10-01T04:41:43.016Z,7.70
2023-10-01T04:44:15.106Z,8.10
2023-10-01T04:46:47.431Z,13.70
2023-10-01T04:49:44.414Z,7.67
2023-10-01T04:52:13.872Z,7.80
2023-10-01T04:54:46.507Z,8.00
2023-10-01T04:57:15.723Z,7.87
2023-10-01T04:59:59.057Z,8.50
2023-10-01T05:02:33.014Z,15.97
2023-10-01T05:05:12.422Z,6.90
2023-10-01T05:07:43.889Z,12.47
2023-10-01T05:10:13.587Z,9.57
2023-10-01T05:12:46.266Z,9.67
2023-10-01T05:15:26.694Z,6.93
2023-10-01T05:17:58.184Z,14.63
2023-10-01T05:20:28.020Z,7.63
2023-10-01T05:23:00.588Z,10.47
2023-10-01T05:25:33.293Z,13.73
2023-10-01T05:28:07.712Z,9.60
2023-10-01T05:30:39.761Z,9.77
2023-10-01T05:33:13.369Z,17.50
2023-10-01T05:35:46.078Z,9.63
2023-10-01T05:38:18.180Z,8.67
2023-10-01T05:40:47.534Z,11.43
2023-10-01T05:43:16.927Z,8.90
2023-10-01T05:45:52.606Z,6.77
2023-10-01T05:48:24.834Z,12.87
2023-10-01T05:50:54.712Z,10.83
2023-10-01T05:53:23.705Z,11.67
2023-10-01T05:55:52.645Z,12.60
2023-10-01T05:58:23.519Z,10.40
2023-10-01T06:01:07.619Z,11.60
2023-10-01T06:03:42.501Z,6.60
2023-10-01T06:06:15.598Z,11.10
2023-10-01T06:08:51.216Z,7.00
2023-10-01T06:11:39.707Z,6.30
2023-10-01T06:14:09.676Z,5.70
2023-10-01T06:16:40.284Z,10.33
2023-10-01T06:19:13.504Z,9.70
2023-10-01T06:21:42.718Z,10.03
2023-10-01T06:24:12.565Z,10.00
2023-10-01T06:26:44.646Z,8.43
2023-10-01T06:29:15.069Z,12.93
2023-10-01T06:32:02.218Z,8.60
2023-10-01T06:34:33.810Z,9.67
2023-10-01T06:37:03.750Z,8.33
2023-10-01T06:39:36.527Z,9.27
2023-10-01T06:42:21.494Z,9.47
2023-10-01T06:44:54.214Z,9.57
2023-10-01T06:47:25.422Z,9.67
2023-10-01T06:50:09.329Z,10.80
2023-10-01T06:52:43.746Z,9.20
2023-10-01T06:55:27.749Z,10.87
2023-10-01T06:57:57.628Z,11.50
2023-10-01T07:00:27.360Z,11.20
2023-10-01T07:03:15.192Z,11.03
2023-10-01T07:05:48.049Z,14.93
2023-10-01T07:08:19.634Z,10.83
2023-10-01T07:10:52.587Z,11.70
2023-10-01T07:13:23.805Z,13.37
2023-10-01T07:15:54.137Z,10.80
2023-10-01T07:18:23.455Z,10.80
2023-10-01T07:20:54.087Z,19.00
2023-10-01T07:23:23.793Z,11.80
2023-10-01T07:26:02.320Z,13.70
2023-10-01T07:28:31.882Z,16.03
2023-10-01T07:31:04.137Z,17.27
2023-10-01T07:33:34.929Z,14.37
2023-10-01T07:36:12.900Z,14.87
2023-10-01T07:38:50.840Z,17.30
2023-10-01T07:41:21.713Z,11.90
2023-10-01T07:43:50.804Z,19.00
2023-10-01T07:46:21.227Z,15.73
2023-10-01T07:48:53.292Z,16.10
2023-10-01T07:51:28.621Z,10.73
2023-10-01T07:54:01.472Z,11.40
2023-10-01T07:56:30.649Z,13.30
2023-10-01T07:59:19.011Z,12.07
2023-10-01T08:02:00.977Z,11.57
2023-10-01T08:04:48.024Z,17.40
2023-10-01T08:07:19.277Z,14.13
2023-10-01T08:09:52.929Z,12.07
2023-10-01T08:12:30.385Z,15.20
2023-10-01T08:15:19.834Z,21.13
2023-10-01T08:17:49.128Z,12.90
2023-10-01T08:20:18.712Z,12.67
2023-10-01T08:23:03.210Z,13.77
2023-10-01T08:25:34.241Z,15.67
2023-10-01T08:28:10.557Z,12.20
2023-10-01T08:30:41.461Z,15.00
2023-10-01T08:33:20.621Z,15.27
2023-10-01T08:35:58.321Z,25.97
2023-10-01T08:38:31.304Z,12.60
2023-10-01T08:41:02.400Z,13.23
2023-10-01T08:43:36.525Z,17.60
2023-10-01T08:46:14.454Z,17.33
2023-10-01T08:48:44.797Z,12.97
2023-10-01T08:51:18.024Z,15.80
2023-10-01T08:53:49.166Z,15.77
2023-10-01T08:56:33.769Z,22.60
2023-10-01T08:59:23.079Z,13.60
2023-10-01T09:01:54.166Z,15.03
2023-10-01T09:04:45.738Z,13.70
2023-10-01T09:07:19.919Z,13.27
2023-10-01T09:10:09.187Z,16.27
2023-10-01T09:12:47.409Z,18.83
2023-10-01T09:15:28.964Z,19.33
2023-10-01T09:18:12.293Z,16.03
2023-10-01T09:20:43.814Z,16.10
2023-10-01T09:23:13.547Z,15.03
2023-10-01T09:25:44.528Z,22.23
2023-10-01T09:28:31.057Z,15.07
2023-10-01T09:31:03.692Z,15.53
2023-10-01T09:33:33.899Z,19.90
2023-10-01T09:36:04.643Z,17.57
2023-10-01T09:38:34.453Z,13.33
2023-10-01T09:41:05.480Z,20.27
2023-10-01T09:43:37.488Z,13.80
2023-10-01T09:46:09.268Z,15.77
2023-10-01T09:48:50.477Z,19.60
2023-10-01T09:51:25.264Z,15.10
2023-10-01T09:54:01.909Z,16.07
2023-10-01T09:56:48.331Z,19.80
2023-10-01T09:59:18.385Z,17.17
2023-10-01T10:01:47.930Z,27.00
2023-10-01T10:04:22.144Z,15.43
2023-10-01T10:07:01.544Z,19.40
2023-10-01T10:09:33.310Z,16.07
2023-10-01T10:12:09.662Z,19.10
2023-10-01T10:14:58.140Z,15.80
2023-10-01T10:17:40.238Z,15.97
2023-10-01T10:23:17.598Z,18.80
2023-10-01T10:25:47.304Z,19.70
2023-10-01T10:28:27.837Z,19.70
2023-10-01T10:31:32.257Z,17.90
2023-10-01T10:34:27.651Z,17.60
2023-10-01T10:36:56.676Z,21.30
2023-10-01T10:40:28.123Z,18.80
2023-10-01T10:43:23.457Z,16.27
2023-10-01T10:46:07.590Z,20.30
2023-10-01T10:49:04.871Z,16.50
2023-10-01T10:51:49.749Z,21.23
2023-10-01T10:54:32.351Z,20.90
2023-10-01T10:57:07.042Z,18.10
2023-10-01T10:59:37.033Z,18.77
2023-10-01T11:02:08.763Z,17.37
2023-10-01T11:04:43.506Z,20.83
2023-10-01T11:07:14.606Z,19.97
2023-10-01T11:09:43.681Z,16.70
2023-10-01T11:12:23.163Z,17.50
2023-10-01T11:15:21.423Z,21.07
2023-10-01T11:18:02.714Z,25.47
2023-10-01T11:20:35.487Z,17.80
2023-10-01T11:23:10.232Z,17.47
2023-10-01T11:25:42.022Z,19.50
2023-10-01T11:28:11.522Z,19.30
2023-10-01T11:30:44.445Z,22.13
2023-10-01T11:33:17.649Z,23.20
2023-10-01T11:36:09.293Z,18.53
2023-10-01T11:38:41.649Z,19.30
2023-10-01T11:41:11.511Z,18.33
2023-10-01T11:43:43.578Z,23.83
2023-10-01T11:46:23.184Z,21.47
2023-10-01T11:49:01.616Z,19.27
2023-10-01T11:51:33.711Z,19.20
2023-10-01T11:54:14.742Z,20.27
2023-10-01T11:56:46.277Z,21.17
2023-10-01T11:59:20.598Z,18.40
2023-10-01T12:01:52.555Z,22.90
2023-10-01T12:04:45.568Z,20.93
2023-10-01T12:07:19.236Z,16.17
2023-10-01T12:09:52.665Z,20.40
2023-10-01T12:12:23.412Z,17.53
2023-10-01T12:14:55.445Z,18.33
2023-10-01T12:17:26.733Z,19.07
2023-10-01T12:20:01.394Z,17.03
2023-10-01T12:22:32.857Z,19.13
2023-10-01T12:25:02.909Z,17.20
2023-10-01T12:27:42.306Z,18.27
2023-10-01T12:30:31.713Z,18.63
2023-10-01T12:33:05.337Z,21.40
2023-10-01T12:35:40.318Z,17.97
2023-10-01T12:38:29.549Z,28.70
2023-10-01T12:40:58.732Z,23.10
2023-10-01T12:43:39.846Z,19.50
2023-10-01T12:46:11.174Z,21.50
2023-10-01T12:48:41.496Z,21.63
2023-10-01T12:51:14.315Z,15.60
2023-10-01T12:53:49.506Z,20.90
2023-10-01T12:56:22.836Z,19.80
2023-10-01T12:58:57.320Z,21.37
2023-10-01T13:01:34.221Z,19.63
2023-10-01T13:04:23.416Z,19.97
2023-10-01T13:07:02.611Z,18.57
2023-10-01T13:09:52.517Z,20.10
2023-10-01T13:12:26.419Z,17.70
2023-10-01T13:15:13.630Z,18.10
2023-10-01T13:17:46.228Z,17.53
2023-10-01T13:20:28.336Z,17.70
2023-10-01T13:23:08.450Z,20.70
2023-10-01T13:25:39.160Z,22.87
2023-10-01T13:28:09.250Z,19.00
2023-10-01T13:30:53.815Z,21.03
2023-10-01T13:33:24.818Z,21.03
2023-10-01T13:35:58.834Z,21.30
2023-10-01T13:38:58.420Z,21.67
2023-10-01T13:41:45.843Z,21.87
2023-10-01T13:44:32.652Z,22.23
2023-10-01T13:47:19.423Z,18.30
2023-10-01T13:50:06.949Z,22.97
2023-10-01T13:52:53.651Z,22.37
2023-10-01T13:55:56.399Z,17.80
2023-10-01T13:58:44.178Z,28.60
2023-10-01T14:01:31.209Z,19.93
2023-10-01T14:04:18.240Z,20.67
2023-10-01T14:07:04.910Z,22.07
2023-10-01T14:09:50.808Z,17.53
2023-10-01T14:12:36.273Z,21.03
2023-10-01T14:15:06.598Z,18.10
2023-10-01T14:17:35.751Z,23.10
2023-10-01T14:20:10.350Z,27.37
2023-10-01T14:22:51.377Z,17.63
2023-10-01T14:25:22.142Z,18.27
2023-10-01T14:27:52.928Z,15.70
2023-10-01T14:30:28.410Z,19.00
2023-10-01T14:33:00.383Z,17.33
2023-10-01T14:35:39.246Z,18.60
2023-10-01T14:38:08.586Z,16.90
2023-10-01T14:40:38.027Z,17.10
2023-10-01T14:43:08.562Z,18.20
2023-10-01T14:45:45.095Z,15.63
2023-10-01T14:48:14.238Z,17.93
2023-10-01T14:50:43.325Z,19.20
2023-10-01T14:53:14.076Z,17.43
2023-10-01T14:55:44.168Z,16.60
2023-10-01T14:58:16.768Z,17.43
2023-10-01T15:00:56.107Z,21.10
2023-10-01T15:03:55.508Z,18.97
2023-10-01T15:06:25.865Z,17.73
2023-10-01T15:09:01.628Z,20.90
2023-10-01T15:11:32.905Z,16.00
2023-10-01T15:14:14.167Z,17.90
2023-10-01T15:17:09.078Z,21.20
2023-10-01T15:19:49.560Z,22.17
2023-10-01T15:22:20.308Z,18.30
2023-10-01T15:24:50.335Z,20.40
2023-10-01T15:27:25.973Z,20.17
2023-10-01T15:29:58.601Z,15.10
2023-10-01T15:32:32.098Z,16.67
2023-10-01T15:35:01.643Z,23.50
2023-10-01T15:37:33.391Z,15.60
2023-10-01T15:40:23.443Z,16.60
2023-10-01T15:42:55.889Z,18.73
2023-10-01T15:45:27.253Z,19.80
2023-10-01T15:48:01.007Z,21.40
2023-10-01T15:50:40.829Z,18.83
2023-10-01T15:53:19.675Z,16.20
2023-10-01T15:56:00.382Z,16.00
2023-10-01T15:58:29.730Z,17.83
2023-10-01T16:01:01.338Z,17.90
2023-10-01T16:03:34.007Z,20.30
2023-10-01T16:06:11.443Z,18.23
2023-10-01T16:08:45.108Z,17.13
2023-10-01T16:11:15.444Z,22.00
2023-10-01T16:13:55.396Z,19.50
2023-10-01T16:16:28.877Z,20.53
2023-10-01T16:19:02.166Z,18.10
2023-10-01T16:21:33.759Z,31.43
2023-10-01T16:24:04.465Z,18.20
2023-10-01T16:26:34.486Z,23.07
2023-10-01T16:29:08.869Z,19.60
2023-10-01T16:31:41.429Z,19.27
2023-10-01T16:34:10.786Z,17.27
2023-10-01T16:36:40.286Z,20.03
2023-10-01T16:39:19.332Z,19.90
2023-10-01T16:41:51.309Z,19.23
2023-10-01T16:44:21.071Z,22.30
2023-10-01T16:46:59.546Z,22.97
2023-10-01T16:49:29.320Z,17.73
2023-10-01T16:51:59.275Z,19.03
2023-10-01T16:54:40.080Z,17.23
2023-10-01T16:57:14.436Z,16.17
2023-10-01T16:59:57.771Z,19.33
2023-10-01T17:02:31.246Z,24.00
2023-10-01T17:05:07.935Z,21.30
2023-10-01T17:07:43.148Z,18.70
2023-10-01T17:10:15.308Z,19.80
2023-10-01T17:12:45.545Z,19.07
2023-10-01T17:15:42.984Z,15.10
2023-10-01T17:18:18.906Z,19.50
2023-10-01T17:20:52.366Z,17.00
2023-10-01T17:23:22.305Z,19.10
2023-10-01T17:26:00.733Z,18.50
2023-10-01T17:28:50.278Z,23.50
2023-10-01T17:31:20.527Z,21.30
2023-10-01T17:33:52.214Z,18.67
2023-10-01T17:36:21.384Z,14.73
2023-10-01T17:38:51.858Z,20.07
2023-10-01T17:41:21.847Z,20.37
2023-10-01T17:43:59.870Z,17.87
2023-10-01T17:46:36.369Z,18.13
2023-10-01T17:49:10.137Z,25.10
2023-10-01T17:51:45.336Z,27.80
2023-10-01T17:54:19.341Z,22.93
2023-10-01T17:56:48.435Z,24.93
2023-10-01T17:59:19.854Z,19.10
2023-10-01T18:01:53.522Z,22.57
2023-10-01T18:04:25.625Z,21.53
2023-10-01T18:06:57.565Z,18.53
2023-10-01T18:09:28.361Z,22.53
2023-10-01T18:12:04.271Z,17.17
2023-10-01T18:14:34.995Z,21.47
2023-10-01T18:17:05.614Z,20.90
2023-10-01T18:19:48.911Z,26.90
2023-10-01T18:22:18.617Z,22.20
2023-10-01T18:24:47.744Z,21.80
2023-10-01T18:27:24.975Z,19.00
2023-10-01T18:29:58.855Z,26.73
2023-10-01T18:32:28.950Z,23.23
2023-10-01T18:34:59.676Z,22.53
2023-10-01T18:37:37.511Z,27.70
2023-10-01T18:40:15.011Z,18.70
2023-10-01T18:42:44.768Z,19.20
2023-10-01T18:45:13.753Z,25.50
2023-10-01T18:47:42.849Z,23.10
2023-10-01T18:50:16.078Z,20.17
2023-10-01T18:52:45.357Z,21.23
2023-10-01T18:55:15.715Z,20.87
2023-10-01T18:57:45.099Z,21.60
2023-10-01T19:00:22.600Z,23.00
2023-10-01T19:02:52.837Z,24.40
2023-10-01T19:05:23.392Z,18.80
2023-10-01T19:07:52.547Z,27.23
2023-10-01T19:10:21.757Z,26.30
2023-10-01T19:12:51.053Z,27.57
2023-10-01T19:15:21.929Z,21.17
2023-10-01T19:17:51.301Z,22.70
2023-10-01T19:20:22.967Z,20.70
2023-10-01T19:22:58.973Z,23.60
2023-10-01T19:25:30.520Z,26.00
2023-10-01T19:28:02.291Z,17.77
2023-10-01T19:30:37.004Z,24.80
2023-10-01T19:33:07.376Z,22.00
2023-10-01T19:35:39.160Z,20.00
2023-10-01T19:38:09.702Z,26.13
2023-10-01T19:40:39.132Z,20.17
2023-10-01T19:43:08.669Z,23.33
2023-10-01T19:45:39.020Z,22.40
2023-10-01T19:48:09.407Z,22.73
2023-10-01T19:50:42.417Z,19.90
2023-10-01T19:53:24.277Z,21.17
2023-10-01T19:55:56.860Z,26.80
2023-10-01T19:58:32.694Z,28.93
2023-10-01T20:01:16.832Z,27.53
2023-10-01T20:03:48.614Z,22.03
2023-10-01T20:06:22.396Z,23.03
2023-10-01T20:08:57.215Z,27.13
2023-10-01T20:11:29.814Z,24.10
2023-10-01T20:14:00.332Z,21.40
2023-10-01T20:16:32.109Z,21.30
2023-10-01T20:19:01.874Z,30.83
2023-10-01T20:21:32.714Z,16.33
2023-10-01T20:24:02.470Z,19.13
2023-10-01T20:26:33.635Z,24.03
2023-10-01T20:29:03.516Z,19.10
2023-10-01T20:31:32.763Z,29.10
2023-10-01T20:34:02.502Z,20.30
2023-10-01T20:36:39.087Z,20.40
2023-10-01T20:39:09.017Z,25.87
2023-10-01T20:41:38.295Z,21.67
2023-10-01T20:44:08.527Z,25.13
2023-10-01T20:46:38.330Z,21.97
2023-10-01T20:49:09.112Z,20.30
2023-10-01T20:51:43.609Z,16.20
2023-10-01T20:54:16.595Z,27.27
2023-10-01T20:56:53.844Z,23.43
2023-10-01T20:59:23.880Z,22.63
2023-10-01T21:01:55.172Z,28.03
2023-10-01T21:04:27.092Z,22.60
2023-10-01T21:07:03.398Z,21.87
2023-10-01T21:09:39.570Z,19.50
2023-10-01T21:12:13.473Z,26.63
2023-10-01T21:14:48.433Z,31.17
2023-10-01T21:17:23.672Z,22.90
2023-10-01T21:20:11.951Z,21.70
2023-10-01T21:22:44.470Z,27.63
2023-10-01T21:25:24.668Z,23.57
2023-10-01T21:27:55.378Z,24.20
2023-10-01T21:30:25.052Z,22.90
2023-10-01T21:32:56.706Z,20.40
2023-10-01T21:35:27.495Z,25.33
2023-10-01T21:38:09.515Z,23.17
2023-10-01T21:40:39.387Z,25.80
2023-10-01T21:43:08.420Z,21.07
2023-10-01T21:45:59.965Z,24.60
2023-10-01T21:48:30.357Z,25.77
2023-10-01T21:51:03.938Z,27.50
2023-10-01T21:53:36.706Z,24.60
2023-10-01T21:56:07.758Z,20.67
2023-10-01T21:58:38.974Z,20.00
2023-10-01T22:01:22.269Z,21.57
2023-10-01T22:03:53.322Z,24.33
2023-10-01T22:06:30.191Z,30.77
2023-10-01T22:09:01.820Z,32.57
2023-10-01T22:11:32.558Z,26.43
2023-10-01T22:14:07.404Z,27.83
2023-10-01T22:16:45.311Z,24.50
2023-10-01T22:19:16.995Z,21.77
2023-10-01T22:21:50.732Z,26.03
2023-10-01T22:24:28.012Z,19.33
2023-10-01T22:26:57.536Z,25.03
2023-10-01T22:29:29.572Z,22.50
2023-10-01T22:32:00.497Z,22.63
2023-10-01T22:34:30.345Z,24.37
2023-10-01T22:37:00.295Z,16.53
2023-10-01T22:39:49.841Z,20.13
2023-10-01T22:42:32.077Z,22.00
2023-10-01T22:45:08.221Z,24.07
2023-10-01T22:47:42.495Z,19.77
2023-10-01T22:50:14.573Z,24.97
2023-10-01T22:52:46.396Z,23.03
2023-10-01T22:55:17.671Z,22.07
2023-10-01T22:57:47.631Z,23.70
2023-10-01T23:00:23.960Z,26.40
2023-10-01T23:02:55.065Z,27.83
2023-10-01T23:05:39.996Z,25.53
2023-10-01T23:08:10.779Z,24.17
2023-10-01T23:10:42.482Z,24.90
2023-10-01T23:13:13.135Z,27.53
2023-10-01T23:15:43.539Z,25.50
2023-10-01T23:18:19.829Z,23.97
2023-10-01T23:20:53.452Z,25.27
2023-10-01T23:23:29.137Z,30.90
2023-10-01T23:26:13.046Z,23.47
2023-10-01T23:28:43.014Z,28.60
2023-10-01T23:31:16.974Z,26.50
2023-10-01T23:33:52.345Z,23.67
2023-10-01T23:36:37.932Z,26.20
2023-10-01T23:39:23.400Z,23.47
2023-10-01T23:41:54.244Z,26.23
2023-10-01T23:44:28.868Z,21.17
2023-10-01T23:46:59.706Z,22.23
2023-10-01T23:49:30.523Z,37.60
2023-10-01T23:52:04.798Z,26.90
2023-10-01T23:54:38.469Z,22.63
2023-10-01T23:57:14.964Z,27.10
2023-10-01T23:59:50.778Z,31.17
